createdAt,value
2019-05-26T00:01:49.655Z,14.32
2019-05-26T00:04:17.439Z,14.22
2019-05-26T00:06:45.217Z,14.11
2019-05-26T00:09:13.003Z,14.04
2019-05-26T00:11:40.767Z,13.97
2019-05-26T00:14:08.547Z,13.91
2019-05-26T00:16:36.337Z,13.94
2019-05-26T00:19:04.112Z,13.84
2019-05-26T00:21:31.887Z,13.82
2019-05-26T00:23:59.948Z,13.82
2019-05-26T00:26:27.786Z,13.83
2019-05-26T00:28:55.620Z,13.75
2019-05-26T00:31:23.404Z,13.77
2019-05-26T00:33:51.173Z,13.72
2019-05-26T00:36:19.018Z,13.70
2019-05-26T00:38:46.794Z,13.69
2019-05-26T00:41:14.573Z,13.65
2019-05-26T00:43:42.480Z,13.65
2019-05-26T00:46:10.324Z,13.62
2019-05-26T00:48:38.084Z,13.59
2019-05-26T00:51:05.862Z,13.59
2019-05-26T00:53:33.713Z,13.63
2019-05-26T00:56:01.500Z,13.64
2019-05-26T00:58:29.261Z,13.63
2019-05-26T01:00:57.105Z,13.60
2019-05-26T01:03:24.947Z,13.58
2019-05-26T01:05:52.734Z,13.61
2019-05-26T01:08:20.511Z,13.59
2019-05-26T01:10:48.340Z,13.57
2019-05-26T01:13:16.103Z,13.51
2019-05-26T01:15:43.881Z,13.52
2019-05-26T01:18:11.651Z,13.52
2019-05-26T01:20:51.603Z,13.50
2019-05-26T01:23:19.376Z,13.50
2019-05-26T01:25:47.144Z,13.50
2019-05-26T01:28:15.247Z,13.54
2019-05-26T01:30:43.026Z,13.55
2019-05-26T01:33:10.799Z,13.56
2019-05-26T01:35:40.201Z,13.57
2019-05-26T01:38:22.449Z,13.56
2019-05-26T01:40:41.577Z,13.53
2019-05-26T01:43:09.444Z,13.53
2019-05-26T01:45:37.288Z,13.52
2019-05-26T01:48:05.812Z,13.58
2019-05-26T01:50:33.607Z,13.56
2019-05-26T01:53:01.378Z,13.53
2019-05-26T01:55:29.968Z,13.56
2019-05-26T01:57:57.807Z,13.56
2019-05-26T02:00:25.980Z,13.54
2019-05-26T02:02:54.443Z,13.51
2019-05-26T02:05:22.208Z,13.50
2019-05-26T02:07:49.995Z,13.44
2019-05-26T02:10:17.840Z,13.38
2019-05-26T02:12:45.608Z,13.28
2019-05-26T02:15:13.470Z,13.21
2019-05-26T02:17:41.235Z,13.17
2019-05-26T02:20:10.143Z,13.14
2019-05-26T02:22:37.961Z,13.04
2019-05-26T02:25:05.948Z,13.00
2019-05-26T02:27:34.097Z,12.95
2019-05-26T02:30:01.885Z,12.89
2019-05-26T02:32:29.727Z,12.89
2019-05-26T02:34:57.492Z,12.91
2019-05-26T02:37:25.278Z,12.92
2019-05-26T02:39:53.035Z,12.90
2019-05-26T02:42:20.801Z,12.91
2019-05-26T02:44:49.000Z,12.91
2019-05-26T02:47:17.017Z,12.93
2019-05-26T02:49:44.778Z,12.94
2019-05-26T02:52:12.958Z,12.95
2019-05-26T02:54:40.717Z,12.99
2019-05-26T02:57:08.493Z,12.97
2019-05-26T02:59:36.278Z,12.96
2019-05-26T03:02:04.802Z,12.97
2019-05-26T03:04:32.874Z,12.99
2019-05-26T03:07:00.929Z,13.01
2019-05-26T03:09:28.693Z,13.03
2019-05-26T03:11:56.464Z,13.04
2019-05-26T03:14:24.258Z,13.03
2019-05-26T03:16:52.008Z,13.11
2019-05-26T03:19:19.810Z,13.13
2019-05-26T03:21:48.753Z,13.16
2019-05-26T03:24:17.301Z,13.18
2019-05-26T03:26:45.136Z,13.11
2019-05-26T03:29:12.943Z,13.09
2019-05-26T03:31:40.825Z,13.17
2019-05-26T03:34:08.722Z,13.21
2019-05-26T03:36:36.496Z,13.32
2019-05-26T03:39:05.858Z,13.34
2019-05-26T03:41:34.050Z,13.47
2019-05-26T03:44:01.823Z,13.50
2019-05-26T03:46:29.910Z,13.52
2019-05-26T03:48:57.667Z,13.54
2019-05-26T03:51:25.449Z,13.60
2019-05-26T03:53:53.279Z,13.65
2019-05-26T03:56:21.041Z,13.67
2019-05-26T03:58:48.867Z,13.69
2019-05-26T04:01:16.758Z,13.69
2019-05-26T04:03:44.514Z,13.75
2019-05-26T04:06:12.306Z,13.74
2019-05-26T04:08:40.063Z,13.73
2019-05-26T04:11:07.826Z,13.80
2019-05-26T04:13:35.683Z,13.80
2019-05-26T04:16:03.611Z,13.83
2019-05-26T04:18:31.470Z,13.85
2019-05-26T04:20:59.588Z,13.90
2019-05-26T04:23:27.400Z,13.95
2019-05-26T04:25:55.166Z,13.95
2019-05-26T04:28:22.960Z,13.96
2019-05-26T04:30:50.840Z,13.98
2019-05-26T04:33:18.599Z,14.05
2019-05-26T04:35:46.395Z,14.09
2019-05-26T04:38:14.232Z,14.13
2019-05-26T04:40:42.007Z,14.15
2019-05-26T04:43:14.461Z,14.23
2019-05-26T04:45:39.281Z,14.22
2019-05-26T04:48:07.040Z,14.28
2019-05-26T04:50:34.816Z,14.33
2019-05-26T04:53:06.858Z,14.32
2019-05-26T04:55:32.403Z,14.39
2019-05-26T04:58:00.203Z,14.46
2019-05-26T05:00:27.958Z,14.54
2019-05-26T05:02:55.730Z,14.58
2019-05-26T05:05:23.603Z,14.47
2019-05-26T05:07:51.445Z,14.54
2019-05-26T05:10:19.572Z,14.57
2019-05-26T05:12:47.428Z,14.57
2019-05-26T05:15:17.288Z,14.56
2019-05-26T05:17:45.063Z,14.45
2019-05-26T05:20:13.120Z,14.60
2019-05-26T05:22:40.884Z,14.68
2019-05-26T05:25:14.145Z,14.74
2019-05-26T05:27:38.172Z,14.80
2019-05-26T05:30:06.024Z,14.83
2019-05-26T05:32:33.854Z,14.89
2019-05-26T05:35:01.697Z,14.94
2019-05-26T05:37:29.456Z,14.97
2019-05-26T05:39:57.227Z,14.80
2019-05-26T05:42:25.000Z,14.97
2019-05-26T05:44:52.763Z,15.10
2019-05-26T05:47:20.529Z,15.06
2019-05-26T05:49:48.315Z,15.22
2019-05-26T05:52:16.083Z,15.36
2019-05-26T05:54:44.135Z,15.43
2019-05-26T05:57:11.923Z,15.57
2019-05-26T05:59:39.806Z,15.58
2019-05-26T06:02:07.565Z,15.70
2019-05-26T06:04:35.357Z,15.51
2019-05-26T06:07:03.199Z,15.71
2019-05-26T06:09:31.055Z,15.85
2019-05-26T06:11:58.931Z,16.01
2019-05-26T06:14:26.962Z,16.07
2019-05-26T06:16:54.730Z,16.36
2019-05-26T06:19:22.504Z,16.44
2019-05-26T06:21:50.263Z,16.21
2019-05-26T06:24:18.068Z,16.15
2019-05-26T06:26:45.844Z,16.15
2019-05-26T06:29:13.612Z,16.28
2019-05-26T06:31:41.380Z,16.25
2019-05-26T06:34:09.186Z,16.07
2019-05-26T06:36:36.938Z,16.03
2019-05-26T06:39:06.251Z,16.39
2019-05-26T06:41:34.369Z,16.92
2019-05-26T06:44:02.163Z,17.11
2019-05-26T06:46:29.931Z,17.24
2019-05-26T06:48:57.739Z,17.62
2019-05-26T06:51:25.503Z,17.19
2019-05-26T06:53:53.329Z,17.30
2019-05-26T06:56:21.115Z,17.45
2019-05-26T06:58:48.894Z,17.97
2019-05-26T07:01:16.655Z,17.70
2019-05-26T07:03:44.473Z,18.03
2019-05-26T07:06:12.240Z,18.18
2019-05-26T07:08:40.011Z,18.14
2019-05-26T07:11:07.809Z,18.26
2019-05-26T07:13:35.583Z,18.44
2019-05-26T07:16:04.232Z,18.78
2019-05-26T07:18:32.111Z,18.13
2019-05-26T07:21:03.087Z,18.72
2019-05-26T07:23:30.933Z,18.77
2019-05-26T07:25:59.108Z,18.54
2019-05-26T07:28:26.960Z,18.89
2019-05-26T07:30:54.731Z,18.86
2019-05-26T07:33:22.541Z,19.07
2019-05-26T07:35:50.434Z,19.67
2019-05-26T07:38:18.200Z,19.53
2019-05-26T07:40:46.010Z,19.69
2019-05-26T07:43:13.772Z,19.66
2019-05-26T07:45:42.136Z,19.67
2019-05-26T07:48:09.915Z,19.50
2019-05-26T07:50:37.679Z,19.33
2019-05-26T07:53:05.441Z,19.22
2019-05-26T07:55:33.287Z,19.56
2019-05-26T07:58:01.136Z,20.05
2019-05-26T08:00:28.916Z,19.98
2019-05-26T08:02:56.807Z,19.49
2019-05-26T08:05:24.575Z,19.87
2019-05-26T08:07:52.396Z,19.62
2019-05-26T08:10:20.401Z,19.42
2019-05-26T08:12:48.462Z,19.58
2019-05-26T08:15:16.312Z,20.01
2019-05-26T08:17:44.123Z,20.23
2019-05-26T08:20:12.189Z,19.44
2019-05-26T08:22:39.947Z,19.55
2019-05-26T08:25:07.818Z,20.46
2019-05-26T08:27:35.614Z,20.44
2019-05-26T08:30:04.310Z,21.00
2019-05-26T08:32:32.122Z,20.90
2019-05-26T08:34:59.939Z,21.39
2019-05-26T08:37:28.042Z,21.48
2019-05-26T08:39:58.039Z,21.11
2019-05-26T08:42:31.897Z,21.24
2019-05-26T08:44:55.342Z,21.52
2019-05-26T08:47:23.196Z,21.29
2019-05-26T08:49:50.976Z,20.97
2019-05-26T08:52:18.844Z,21.05
2019-05-26T08:54:46.774Z,21.01
2019-05-26T08:57:14.640Z,20.64
2019-05-26T08:59:42.718Z,20.44
2019-05-26T09:02:10.994Z,20.79
2019-05-26T09:04:38.763Z,20.47
2019-05-26T09:07:06.531Z,20.36
2019-05-26T09:09:34.724Z,20.43
2019-05-26T09:12:02.568Z,20.49
2019-05-26T09:14:30.747Z,20.25
2019-05-26T09:16:58.533Z,20.67
2019-05-26T09:19:26.680Z,20.59
2019-05-26T09:21:54.467Z,20.35
2019-05-26T09:24:22.248Z,20.29
2019-05-26T09:26:50.111Z,20.30
2019-05-26T09:29:17.950Z,20.47
2019-05-26T09:31:45.735Z,20.37
2019-05-26T09:34:13.560Z,20.81
2019-05-26T09:36:41.427Z,20.95
2019-05-26T09:39:09.307Z,21.07
2019-05-26T09:41:37.227Z,20.75
2019-05-26T09:44:05.065Z,21.32
2019-05-26T09:46:32.831Z,21.17
2019-05-26T09:49:01.149Z,20.86
2019-05-26T09:51:29.357Z,21.15
2019-05-26T09:54:01.593Z,21.44
2019-05-26T09:56:26.654Z,21.63
2019-05-26T09:58:54.506Z,21.77
2019-05-26T10:01:22.310Z,21.81
2019-05-26T10:03:50.428Z,22.08
2019-05-26T10:06:18.194Z,22.45
2019-05-26T10:08:46.152Z,22.10
2019-05-26T10:11:14.029Z,21.07
2019-05-26T10:13:41.903Z,21.49
2019-05-26T10:16:09.766Z,21.82
2019-05-26T10:18:37.649Z,21.59
2019-05-26T10:21:05.494Z,21.52
2019-05-26T10:23:33.367Z,21.66
2019-05-26T10:26:01.447Z,22.05
2019-05-26T10:28:29.301Z,22.53
2019-05-26T10:30:57.106Z,22.02
2019-05-26T10:33:24.923Z,22.23
2019-05-26T10:35:53.117Z,22.11
2019-05-26T10:38:20.973Z,22.57
2019-05-26T10:40:48.831Z,22.86
2019-05-26T10:43:16.692Z,22.68
2019-05-26T10:45:44.665Z,22.49
2019-05-26T10:48:12.736Z,23.07
2019-05-26T10:50:40.499Z,23.01
2019-05-26T10:53:08.275Z,23.36
2019-05-26T10:55:36.038Z,23.63
2019-05-26T10:58:04.515Z,23.52
2019-05-26T11:00:33.073Z,24.00
2019-05-26T11:03:01.255Z,24.38
2019-05-26T11:05:29.015Z,24.12
2019-05-26T11:07:56.854Z,24.48
2019-05-26T11:10:24.978Z,24.81
2019-05-26T11:12:52.736Z,26.17
2019-05-26T11:15:20.594Z,26.86
2019-05-26T11:17:48.421Z,25.36
2019-05-26T11:20:16.298Z,25.80
2019-05-26T11:22:44.671Z,26.73
2019-05-26T11:25:12.521Z,27.99
2019-05-26T11:27:40.300Z,30.35
2019-05-26T11:30:08.423Z,31.84
2019-05-26T11:32:36.500Z,31.57
2019-05-26T11:35:04.560Z,32.34
2019-05-26T11:37:32.344Z,33.36
2019-05-26T11:40:00.191Z,33.93
2019-05-26T11:42:28.070Z,34.76
2019-05-26T11:44:55.841Z,34.25
2019-05-26T11:47:23.599Z,33.44
2019-05-26T11:49:51.453Z,30.77
2019-05-26T11:52:20.298Z,31.51
2019-05-26T11:54:48.331Z,32.71
2019-05-26T11:57:16.106Z,34.50
2019-05-26T11:59:47.199Z,35.04
2019-05-26T12:02:13.367Z,35.11
2019-05-26T12:04:41.119Z,33.93
2019-05-26T12:07:09.247Z,36.12
2019-05-26T12:09:37.014Z,35.08
2019-05-26T12:12:04.869Z,34.95
2019-05-26T12:14:35.238Z,34.85
2019-05-26T12:17:02.225Z,35.84
2019-05-26T12:19:30.020Z,34.36
2019-05-26T12:21:57.796Z,34.50
2019-05-26T12:24:25.638Z,35.86
2019-05-26T12:26:53.482Z,34.16
2019-05-26T12:29:21.328Z,34.71
2019-05-26T12:31:49.094Z,35.72
2019-05-26T12:34:16.849Z,37.46
2019-05-26T12:36:44.628Z,36.01
2019-05-26T12:39:12.676Z,34.58
2019-05-26T12:41:40.436Z,36.68
2019-05-26T12:44:10.974Z,36.55
2019-05-26T12:46:37.724Z,36.18
2019-05-26T12:49:05.488Z,37.61
2019-05-26T12:51:33.259Z,35.78
2019-05-26T12:54:01.311Z,37.42
2019-05-26T12:56:29.823Z,36.93
2019-05-26T12:58:57.600Z,36.03
2019-05-26T13:01:25.371Z,36.32
2019-05-26T13:03:53.133Z,35.61
2019-05-26T13:06:20.908Z,35.96
2019-05-26T13:08:48.673Z,36.48
2019-05-26T13:11:16.418Z,35.89
2019-05-26T13:13:44.510Z,36.84
2019-05-26T13:16:12.271Z,36.71
2019-05-26T13:18:40.038Z,37.52
2019-05-26T13:21:08.655Z,37.71
2019-05-26T13:23:36.783Z,35.50
2019-05-26T13:26:04.626Z,34.06
2019-05-26T13:28:32.425Z,33.57
2019-05-26T13:31:00.188Z,35.05
2019-05-26T13:33:28.000Z,35.89
2019-05-26T13:35:55.804Z,38.66
2019-05-26T13:38:23.568Z,37.84
2019-05-26T13:40:51.336Z,38.67
2019-05-26T13:43:19.381Z,40.25
2019-05-26T13:45:47.146Z,40.56
2019-05-26T13:48:15.306Z,39.45
2019-05-26T13:50:43.099Z,39.23
2019-05-26T13:53:10.853Z,38.98
2019-05-26T13:55:38.947Z,37.67
2019-05-26T13:58:06.819Z,36.94
2019-05-26T14:00:34.651Z,37.25
2019-05-26T14:03:02.848Z,38.33
2019-05-26T14:05:30.937Z,38.58
2019-05-26T14:07:58.731Z,40.38
2019-05-26T14:10:31.016Z,40.48
2019-05-26T14:12:58.949Z,39.91
2019-05-26T14:15:37.499Z,34.96
2019-05-26T14:17:56.386Z,33.22
2019-05-26T14:20:29.268Z,32.34
2019-05-26T14:22:57.050Z,31.79
2019-05-26T14:25:24.859Z,34.06
2019-05-26T14:27:52.667Z,34.11
2019-05-26T14:30:21.703Z,33.13
2019-05-26T14:32:49.595Z,34.62
2019-05-26T14:35:17.406Z,35.38
2019-05-26T14:37:45.189Z,33.68
2019-05-26T14:40:13.282Z,35.65
2019-05-26T14:42:41.072Z,34.42
2019-05-26T14:45:09.004Z,31.78
2019-05-26T14:47:36.760Z,30.75
2019-05-26T14:50:04.935Z,30.46
2019-05-26T14:52:33.232Z,30.61
2019-05-26T14:55:00.972Z,31.40
2019-05-26T14:57:31.001Z,31.55
2019-05-26T14:59:58.315Z,29.21
2019-05-26T15:02:26.083Z,29.26
2019-05-26T15:04:53.875Z,28.88
2019-05-26T15:07:21.644Z,28.81
2019-05-26T15:09:49.413Z,27.59
2019-05-26T15:12:17.191Z,26.78
2019-05-26T15:14:44.979Z,26.20
2019-05-26T15:17:13.089Z,26.14
2019-05-26T15:19:40.896Z,26.31
2019-05-26T15:22:08.838Z,26.63
2019-05-26T15:24:36.607Z,27.27
2019-05-26T15:27:04.383Z,27.26
2019-05-26T15:29:32.249Z,27.06
2019-05-26T15:32:02.745Z,26.55
2019-05-26T15:34:29.931Z,25.87
2019-05-26T15:36:57.719Z,25.30
2019-05-26T15:39:25.588Z,25.00
2019-05-26T15:41:53.390Z,25.04
2019-05-26T15:44:21.150Z,24.88
2019-05-26T15:46:49.289Z,24.96
2019-05-26T15:49:17.478Z,25.34
2019-05-26T15:51:45.240Z,25.65
2019-05-26T15:54:13.010Z,25.87
2019-05-26T15:56:40.792Z,26.45
2019-05-26T15:59:08.592Z,25.86
2019-05-26T16:01:36.521Z,24.94
2019-05-26T16:04:04.534Z,24.81
2019-05-26T16:06:32.371Z,24.88
2019-05-26T16:09:00.209Z,25.10
2019-05-26T16:11:28.074Z,25.28
2019-05-26T16:13:55.873Z,25.18
2019-05-26T16:16:23.628Z,25.22
2019-05-26T16:18:51.447Z,24.65
2019-05-26T16:21:27.984Z,24.69
2019-05-26T16:23:49.119Z,24.21
2019-05-26T16:26:17.297Z,24.43
2019-05-26T16:28:45.065Z,24.21
2019-05-26T16:31:12.856Z,24.29
2019-05-26T16:33:40.655Z,24.00
2019-05-26T16:36:08.427Z,23.73
2019-05-26T16:38:36.279Z,23.50
2019-05-26T16:41:06.735Z,23.31
2019-05-26T16:43:34.200Z,23.29
2019-05-26T16:46:01.977Z,23.08
2019-05-26T16:48:29.843Z,22.97
2019-05-26T16:50:57.626Z,22.93
2019-05-26T16:53:25.774Z,23.02
2019-05-26T16:55:53.858Z,23.10
2019-05-26T16:58:21.693Z,23.29
2019-05-26T17:00:49.472Z,23.51
2019-05-26T17:03:17.272Z,23.85
2019-05-26T17:05:45.110Z,24.10
2019-05-26T17:08:12.958Z,24.14
2019-05-26T17:10:41.714Z,24.16
2019-05-26T17:13:10.140Z,24.30
2019-05-26T17:15:37.992Z,24.24
2019-05-26T17:18:05.799Z,24.37
2019-05-26T17:20:34.075Z,24.36
2019-05-26T17:23:01.875Z,24.27
2019-05-26T17:25:29.691Z,24.09
2019-05-26T17:27:57.481Z,23.86
2019-05-26T17:30:25.340Z,23.56
2019-05-26T17:32:53.219Z,23.45
2019-05-26T17:35:20.987Z,23.28
2019-05-26T17:37:48.875Z,22.75
2019-05-26T17:40:16.752Z,22.72
2019-05-26T17:42:44.538Z,22.72
2019-05-26T17:45:12.359Z,22.53
2019-05-26T17:47:40.167Z,22.43
2019-05-26T17:50:08.050Z,22.18
2019-05-26T17:52:35.851Z,22.07
2019-05-26T17:55:04.790Z,21.99
2019-05-26T17:57:32.581Z,22.00
2019-05-26T18:00:00.513Z,21.97
2019-05-26T18:02:28.340Z,21.89
2019-05-26T18:04:56.268Z,21.78
2019-05-26T18:07:24.072Z,21.69
2019-05-26T18:09:51.866Z,21.60
2019-05-26T18:12:20.316Z,21.47
2019-05-26T18:14:48.872Z,21.34
2019-05-26T18:17:16.692Z,21.16
2019-05-26T18:19:44.584Z,21.02
2019-05-26T18:22:12.456Z,20.88
2019-05-26T18:24:52.394Z,20.78
2019-05-26T18:27:10.224Z,20.65
2019-05-26T18:29:38.067Z,20.51
2019-05-26T18:32:05.954Z,20.40
2019-05-26T18:34:34.627Z,20.26
2019-05-26T18:37:02.415Z,20.23
2019-05-26T18:39:30.280Z,20.15
2019-05-26T18:41:58.077Z,20.03
2019-05-26T18:44:25.970Z,19.94
2019-05-26T18:46:53.927Z,19.84
2019-05-26T18:49:21.801Z,19.75
2019-05-26T18:51:49.705Z,19.71
2019-05-26T18:54:17.600Z,19.61
2019-05-26T18:56:45.448Z,19.50
2019-05-26T18:59:13.316Z,19.37
2019-05-26T19:01:41.106Z,19.30
2019-05-26T19:04:08.943Z,19.22
2019-05-26T19:06:36.730Z,19.13
2019-05-26T19:09:06.544Z,19.04
2019-05-26T19:11:34.834Z,18.98
2019-05-26T19:14:03.045Z,18.84
2019-05-26T19:16:30.836Z,18.73
2019-05-26T19:18:58.690Z,18.73
2019-05-26T19:21:26.567Z,18.60
2019-05-26T19:23:54.458Z,18.45
2019-05-26T19:26:22.348Z,18.33
2019-05-26T19:28:50.659Z,18.33
2019-05-26T19:31:18.679Z,18.18
2019-05-26T19:33:46.476Z,18.01
2019-05-26T19:36:14.445Z,18.00
2019-05-26T19:38:42.575Z,17.94
2019-05-26T19:41:10.433Z,17.88
2019-05-26T19:43:38.281Z,17.85
2019-05-26T19:46:06.260Z,17.79
2019-05-26T19:48:37.010Z,17.76
2019-05-26T19:51:03.733Z,17.64
2019-05-26T19:53:31.539Z,17.73
2019-05-26T19:55:59.503Z,17.66
2019-05-26T19:58:28.611Z,17.50
2019-05-26T20:00:56.892Z,17.34
2019-05-26T20:03:24.860Z,17.24
2019-05-26T20:05:52.799Z,17.13
2019-05-26T20:08:20.589Z,17.03
2019-05-26T20:10:48.618Z,16.97
2019-05-26T20:13:16.471Z,16.86
2019-05-26T20:15:44.384Z,16.81
2019-05-26T20:18:12.551Z,16.71
2019-05-26T20:20:40.392Z,16.63
2019-05-26T20:23:08.198Z,16.57
2019-05-26T20:25:36.258Z,16.49
2019-05-26T20:28:04.201Z,16.42
2019-05-26T20:30:32.338Z,16.37
2019-05-26T20:33:00.344Z,16.33
2019-05-26T20:35:28.195Z,16.27
2019-05-26T20:37:55.987Z,16.22
2019-05-26T20:40:23.906Z,16.13
2019-05-26T20:42:51.938Z,16.05
2019-05-26T20:45:19.913Z,15.98
2019-05-26T20:47:47.680Z,15.91
2019-05-26T20:50:28.087Z,15.89
2019-05-26T20:52:45.288Z,15.80
2019-05-26T20:55:13.179Z,15.66
2019-05-26T20:57:41.053Z,15.60
2019-05-26T21:00:09.482Z,15.55
2019-05-26T21:02:37.865Z,15.51
2019-05-26T21:05:05.791Z,15.47
2019-05-26T21:07:33.748Z,15.42
2019-05-26T21:10:01.595Z,15.34
2019-05-26T21:12:29.375Z,15.26
2019-05-26T21:15:00.682Z,15.16
2019-05-26T21:17:26.703Z,15.12
2019-05-26T21:19:54.528Z,15.10
2019-05-26T21:22:22.336Z,15.03
2019-05-26T21:24:50.324Z,14.98
2019-05-26T21:27:18.111Z,14.89
2019-05-26T21:29:45.922Z,14.82
2019-05-26T21:32:13.705Z,14.79
2019-05-26T21:34:41.586Z,14.75
2019-05-26T21:37:09.506Z,14.72
2019-05-26T21:39:37.331Z,14.75
2019-05-26T21:42:05.996Z,14.69
2019-05-26T21:44:34.122Z,14.69
2019-05-26T21:47:02.285Z,14.67
2019-05-26T21:49:30.192Z,14.59
2019-05-26T21:51:58.405Z,14.53
2019-05-26T21:54:26.176Z,14.46
2019-05-26T21:56:54.258Z,14.39
2019-05-26T21:59:22.046Z,14.40
2019-05-26T22:01:50.181Z,14.40
2019-05-26T22:04:17.969Z,14.40
2019-05-26T22:06:45.765Z,14.40
2019-05-26T22:09:13.543Z,14.32
2019-05-26T22:11:41.337Z,14.30
2019-05-26T22:14:09.219Z,14.30
2019-05-26T22:16:36.991Z,14.31
2019-05-26T22:19:05.063Z,14.35
2019-05-26T22:21:33.191Z,14.41
2019-05-26T22:24:00.965Z,14.44
2019-05-26T22:26:29.143Z,14.54
2019-05-26T22:28:56.955Z,14.60
2019-05-26T22:31:24.733Z,14.61
2019-05-26T22:33:52.503Z,14.66
2019-05-26T22:36:20.296Z,14.66
2019-05-26T22:38:48.351Z,14.69
2019-05-26T22:41:16.568Z,14.68
2019-05-26T22:43:44.350Z,14.67
2019-05-26T22:46:12.182Z,14.60
2019-05-26T22:48:39.950Z,14.59
2019-05-26T22:51:07.754Z,14.75
2019-05-26T22:53:35.620Z,14.71
2019-05-26T22:56:03.453Z,14.60
2019-05-26T22:58:31.231Z,14.55
2019-05-26T23:00:59.040Z,14.55
2019-05-26T23:03:26.804Z,14.50
2019-05-26T23:05:54.592Z,14.46
2019-05-26T23:08:22.360Z,14.40
2019-05-26T23:10:50.137Z,14.28
2019-05-26T23:13:17.943Z,14.21
2019-05-26T23:15:45.749Z,14.17
2019-05-26T23:18:13.503Z,14.11
2019-05-26T23:20:41.301Z,14.05
2019-05-26T23:23:09.061Z,13.97
2019-05-26T23:25:36.835Z,13.89
2019-05-26T23:28:04.780Z,13.84
2019-05-26T23:30:32.873Z,13.73
2019-05-26T23:33:00.640Z,13.63
2019-05-26T23:35:28.500Z,13.56
2019-05-26T23:37:56.289Z,13.49
2019-05-26T23:40:24.083Z,13.42
2019-05-26T23:42:51.895Z,13.38
2019-05-26T23:45:19.674Z,13.32
2019-05-26T23:47:47.775Z,13.25
2019-05-26T23:50:16.019Z,13.19
2019-05-26T23:52:43.866Z,13.14
2019-05-26T23:55:12.009Z,13.41
2019-05-26T23:57:39.793Z,13.50
